Time;durP1;ratioP1;P1;durP2;ratioP2;P2;SDS_P1;SDS_P2;PMS_P1;PMS_P2;Temp;Humidity;BMP_temperature;BMP_pressure;BME280_temperature;BME280_humidity;BME280_pressure;Samples;Min_cycle;Max_cycle;Signal;HPM_P1;HPM_P2
2022/03/23 00:02:25;;;;;;;0.10;0.10;;;;;;;11.98;53.54;103151.50;5005945;28;20034;-76
2022/03/23 00:04:53;;;;;;;0.10;0.10;;;;;;;11.98;53.58;103148.84;5004474;28;20022;-77
2022/03/23 00:07:20;;;;;;;0.10;0.10;;;;;;;11.98;53.49;103140.88;4998382;28;20407;-76
2022/03/23 00:09:47;;;;;;;1.48;1.38;;;;;;;11.97;53.23;103144.44;5009253;28;20053;-77
2022/03/23 00:12:13;;;;;;;0.40;0.40;;;;;;;11.95;53.75;103143.50;5007436;28;20049;-77
2022/03/23 00:14:39;;;;;;;0.00;0.00;;;;;;;11.94;53.27;103140.81;5008759;28;20037;-77
2022/03/23 00:17:05;;;;;;;15.32;1.08;;;;;;;11.92;53.18;103138.13;5011760;28;20040;-77
2022/03/23 00:19:31;;;;;;;0.45;0.45;;;;;;;11.89;54.17;103138.09;5010397;28;20038;-77
2022/03/23 00:21:58;;;;;;;0.10;0.10;;;;;;;11.92;53.27;103132.81;5002906;28;20030;-77
2022/03/23 00:24:25;;;;;;;0.25;0.25;;;;;;;11.93;52.82;103139.91;5011346;28;20041;-77
2022/03/23 00:26:51;;;;;;;0.10;0.10;;;;;;;11.89;53.13;103138.09;5006173;28;20032;-77
2022/03/23 00:29:17;;;;;;;0.10;0.10;;;;;;;11.91;53.14;103135.47;5011537;28;20765;-76
2022/03/23 00:31:43;;;;;;;4.82;1.55;;;;;;;11.83;53.03;103135.38;5007100;28;20035;-77
2022/03/23 00:34:10;;;;;;;0.10;0.10;;;;;;;11.80;53.19;103137.97;5008805;28;20109;-77
2022/03/23 00:36:36;;;;;;;0.15;0.15;;;;;;;11.78;52.96;103135.31;5016664;28;20571;-77
2022/03/23 00:39:03;;;;;;;0.73;0.73;;;;;;;11.76;53.05;103133.53;5011115;28;20479;-77
2022/03/23 00:41:29;;;;;;;0.38;0.38;;;;;;;11.73;53.75;103137.03;5017519;28;20172;-76
2022/03/23 00:43:55;;;;;;;0.05;0.05;;;;;;;11.70;53.54;103138.75;5010522;28;20031;-77
2022/03/23 00:46:22;;;;;;;0.98;0.98;;;;;;;11.68;53.43;103136.09;5009884;28;20404;-77
2022/03/23 00:48:49;;;;;;;0.10;0.10;;;;;;;11.70;53.24;103137.00;5010666;28;20084;-77
2022/03/23 00:51:15;;;;;;;0.10;0.10;;;;;;;11.67;53.66;103136.97;5009874;28;20048;-77
2022/03/23 00:53:41;;;;;;;1.35;1.25;;;;;;;11.64;52.94;103131.63;5010743;28;20036;-77
2022/03/23 00:56:09;;;;;;;0.10;0.10;;;;;;;11.61;53.28;103127.16;5009862;28;20030;-77
2022/03/23 00:58:35;;;;;;;0.30;0.30;;;;;;;11.59;53.55;103133.31;5011367;28;20034;-77
2022/03/23 01:01:02;;;;;;;1.23;1.20;;;;;;;11.56;53.52;103139.47;5015733;28;20036;-77
2022/03/23 01:03:28;;;;;;;0.05;0.05;;;;;;;11.51;53.22;103141.19;5001407;28;20064;-77
2022/03/23 01:05:54;;;;;;;0.00;0.00;;;;;;;11.51;53.72;103135.00;5007310;28;20380;-75
2022/03/23 01:08:20;;;;;;;0.00;0.00;;;;;;;11.48;54.03;103134.06;5005084;28;20037;-75
2022/03/23 01:10:48;;;;;;;0.65;0.65;;;;;;;11.48;53.46;103130.53;5009491;28;20487;-75
2022/03/23 01:13:14;;;;;;;0.13;0.13;;;;;;;11.46;53.41;103132.28;5010720;28;20075;-75
2022/03/23 01:15:40;;;;;;;0.75;0.75;;;;;;;11.44;53.65;103134.00;5002153;28;20767;-75
2022/03/23 01:18:06;;;;;;;0.52;0.52;;;;;;;11.41;53.55;103133.97;5010780;28;20034;-75
2022/03/23 01:20:33;;;;;;;0.10;0.10;;;;;;;11.38;54.12;103128.66;5012878;28;20113;-76
2022/03/23 01:22:59;;;;;;;0.32;0.32;;;;;;;11.35;54.23;103132.13;5005254;28;20495;-77
2022/03/23 01:25:25;;;;;;;0.10;0.10;;;;;;;11.33;54.61;103131.22;5005193;28;20034;-76
2022/03/23 01:27:51;;;;;;;0.30;0.30;;;;;;;11.30;54.19;103124.13;5007173;28;20054;-77
2022/03/23 01:30:18;;;;;;;0.20;0.20;;;;;;;11.29;54.60;103119.66;5000200;28;20034;-76
2022/03/23 01:32:45;;;;;;;1.08;0.93;;;;;;;11.28;54.65;103120.53;5010598;28;20033;-76
2022/03/23 01:35:12;;;;;;;0.63;0.63;;;;;;;11.25;54.56;103117.84;5014952;28;20029;-76
2022/03/23 01:37:38;;;;;;;0.45;0.45;;;;;;;11.27;54.49;103123.19;5007450;28;20033;-76
2022/03/23 01:40:08;;;;;;;2.67;0.73;;;;;;;11.24;55.52;103118.72;5005549;28;20068;-76
2022/03/23 01:42:34;;;;;;;0.25;0.25;;;;;;;11.24;54.21;103121.38;5011493;28;20022;-76
2022/03/23 01:45:00;;;;;;;0.10;0.10;;;;;;;11.23;54.14;103114.28;5011245;28;20033;-76
2022/03/23 01:47:27;;;;;;;0.10;0.10;;;;;;;11.22;54.44;103123.09;5002969;28;20040;-77
2022/03/23 01:49:55;;;;;;;1.38;1.30;;;;;;;11.21;54.45;103118.66;5010198;28;20140;-76
2022/03/23 01:52:24;;;;;;;0.10;0.10;;;;;;;11.19;54.27;103123.06;5005548;28;20061;-76
2022/03/23 01:54:50;;;;;;;0.10;0.10;;;;;;;11.15;54.44;103113.28;5010242;28;20029;-76
2022/03/23 01:57:18;;;;;;;0.52;0.52;;;;;;;11.15;54.50;103113.28;5001587;28;20041;-76
2022/03/23 01:59:45;;;;;;;0.10;0.10;;;;;;;11.13;53.88;103115.91;5011697;28;20034;-76
2022/03/23 02:02:12;;;;;;;0.00;0.00;;;;;;;11.12;53.57;103116.78;5004875;28;20038;-76
2022/03/23 02:04:38;;;;;;;0.55;0.55;;;;;;;11.08;53.99;103120.25;5014147;28;20032;-76
2022/03/23 02:07:05;;;;;;;0.10;0.10;;;;;;;11.04;54.28;103115.78;5005543;28;20823;-77
2022/03/23 02:09:32;;;;;;;0.20;0.20;;;;;;;11.00;54.40;103109.53;5005080;28;20027;-77
2022/03/23 02:12:02;;;;;;;0.38;0.38;;;;;;;10.99;54.46;103106.84;5007708;28;20030;-76
2022/03/23 02:14:28;;;;;;;0.57;0.57;;;;;;;10.97;54.36;103113.91;5009956;28;20073;-77
2022/03/23 02:16:54;;;;;;;0.00;0.00;;;;;;;10.95;54.17;103113.91;5008707;28;20499;-76
2022/03/23 02:19:22;;;;;;;0.57;0.57;;;;;;;10.93;53.84;103109.41;5000640;28;20034;-76
2022/03/23 02:21:49;;;;;;;0.65;0.65;;;;;;;10.90;54.23;103107.59;4997421;28;20045;-77
2022/03/23 02:24:16;;;;;;;0.10;0.10;;;;;;;10.88;54.92;103106.72;5008651;28;20030;-77
2022/03/23 02:26:43;;;;;;;0.10;0.10;;;;;;;10.84;54.68;103108.41;5002120;28;20029;-75
2022/03/23 02:29:10;;;;;;;5.68;1.00;;;;;;;10.82;54.50;103106.63;5002319;28;20034;-77
2022/03/23 02:31:37;;;;;;;0.10;0.10;;;;;;;10.80;54.09;103108.34;5007871;28;20180;-77
2022/03/23 02:34:03;;;;;;;0.10;0.10;;;;;;;10.78;54.06;103116.28;5004009;28;20081;-76
2022/03/23 02:36:31;;;;;;;0.10;0.10;;;;;;;10.73;53.85;103110.03;5005736;28;20034;-77
2022/03/23 02:38:57;;;;;;;0.70;0.70;;;;;;;10.70;53.82;103111.72;5006846;28;20046;-76
2022/03/23 02:41:23;;;;;;;1.10;1.10;;;;;;;10.67;53.95;103112.56;5005138;28;20041;-77
2022/03/23 02:43:50;;;;;;;0.40;0.40;;;;;;;10.63;54.00;103111.63;5002039;28;20030;-77
2022/03/23 02:46:17;;;;;;;2.90;0.68;;;;;;;10.60;54.18;103111.56;5012947;28;20030;-77
2022/03/23 02:48:45;;;;;;;0.10;0.10;;;;;;;10.57;54.11;103110.66;5008777;28;20040;-77
2022/03/23 02:51:11;;;;;;;0.20;0.20;;;;;;;10.52;54.01;103107.91;5013818;28;20026;-76
2022/03/23 03:02:14;;;;;;;0.40;0.40;;;;;;;10.44;54.43;103113.09;5093790;27;20130;-76
2022/03/23 03:04:41;;;;;;;0.65;0.55;;;;;;;10.36;54.50;103112.06;5087812;28;20281;-78
2022/03/23 03:07:07;;;;;;;0.45;0.43;;;;;;;10.33;54.16;103112.84;5089573;28;20506;-77
2022/03/23 03:09:33;;;;;;;0.75;0.65;;;;;;;10.30;54.11;103114.56;5089998;28;20024;-75
2022/03/23 03:12:01;;;;;;;0.10;0.10;;;;;;;10.27;54.48;103117.13;5085691;28;20025;-77
2022/03/23 03:14:28;;;;;;;0.00;0.00;;;;;;;10.25;55.02;103119.78;5074996;28;20039;-76
2022/03/23 03:16:54;;;;;;;0.10;0.10;;;;;;;10.21;54.92;103117.94;5084962;28;20048;-77
2022/03/23 03:19:20;;;;;;;0.10;0.10;;;;;;;10.18;54.54;103121.44;5081775;28;20024;-77
2022/03/23 03:21:46;;;;;;;0.10;0.10;;;;;;;10.11;55.33;103119.53;5076325;28;20146;-77
2022/03/23 03:24:13;;;;;;;0.15;0.15;;;;;;;10.06;56.00;103117.66;5069226;28;20410;-76
2022/03/23 03:26:39;;;;;;;0.10;0.10;;;;;;;10.01;54.72;103126.41;5069465;28;20066;-77
2022/03/23 03:29:05;;;;;;;0.20;0.20;;;;;;;9.96;55.77;103119.25;5072228;28;20028;-75
2022/03/23 03:31:32;;;;;;;0.10;0.10;;;;;;;9.92;55.71;103123.59;5078339;28;20032;-75
2022/03/23 03:33:58;;;;;;;1.20;0.75;;;;;;;9.87;55.33;103114.66;5085953;28;20036;-76
2022/03/23 03:36:25;;;;;;;4.95;2.95;;;;;;;9.84;55.23;103119.88;5068905;28;20037;-76
2022/03/23 03:38:51;;;;;;;1.65;1.55;;;;;;;9.80;55.40;103116.28;5068333;28;20039;-77
2022/03/23 03:41:18;;;;;;;0.22;0.22;;;;;;;9.79;55.53;103125.09;5074720;28;20090;-77
2022/03/23 03:43:44;;;;;;;0.40;0.40;;;;;;;9.79;55.72;103129.50;5075279;28;20037;-76
2022/03/23 03:46:11;;;;;;;4.25;0.85;;;;;;;9.80;55.94;103126.00;5067578;28;20063;-76
2022/03/23 03:48:40;;;;;;;0.85;0.73;;;;;;;9.82;55.30;103132.19;5068280;28;20084;-76
2022/03/23 03:51:07;;;;;;;0.10;0.10;;;;;;;9.79;55.63;103130.38;5080892;28;20033;-76
2022/03/23 03:53:35;;;;;;;1.65;1.55;;;;;;;9.76;55.45;103125.03;5077830;28;20115;-76
2022/03/23 03:56:02;;;;;;;0.00;0.00;;;;;;;9.75;55.55;103122.38;5084311;28;20061;-77
2022/03/23 03:58:28;;;;;;;0.10;0.10;;;;;;;9.77;55.35;103120.63;5083662;28;20507;-75
2022/03/23 04:00:54;;;;;;;0.75;0.75;;;;;;;9.75;55.26;103127.66;5069463;28;20056;-76
2022/03/23 04:03:21;;;;;;;0.10;0.10;;;;;;;9.75;55.73;103128.53;5070134;28;20402;-77
2022/03/23 04:05:47;;;;;;;0.10;0.10;;;;;;;9.76;55.14;103129.41;5072357;28;20032;-77
2022/03/23 04:08:13;;;;;;;0.20;0.20;;;;;;;9.73;55.25;103127.59;5085488;28;20032;-77
2022/03/23 04:10:40;;;;;;;0.20;0.20;;;;;;;9.70;55.68;103128.44;5076261;28;20021;-75
2022/03/23 04:13:07;;;;;;;2.53;0.60;;;;;;;9.69;55.88;103131.97;5073288;28;20043;-77
2022/03/23 04:15:34;;;;;;;0.10;0.10;;;;;;;9.69;55.96;103129.31;5067503;28;20406;-76
2022/03/23 04:18:01;;;;;;;0.10;0.10;;;;;;;9.70;55.81;103136.38;5061383;28;20029;-76
2022/03/23 04:20:28;;;;;;;0.10;0.10;;;;;;;9.71;55.40;103138.16;5061566;28;20029;-76
2022/03/23 04:22:54;;;;;;;0.52;0.52;;;;;;;9.69;55.39;103128.41;5062126;28;20106;-76
2022/03/23 04:25:20;;;;;;;0.10;0.10;;;;;;;9.68;55.71;103142.50;5057795;28;20108;-76
2022/03/23 04:27:50;;;;;;;0.05;0.05;;;;;;;9.67;57.61;103133.69;5061745;28;20029;-77
2022/03/23 04:30:19;;;;;;;0.10;0.10;;;;;;;9.64;56.10;103136.25;5054416;28;20040;-76
2022/03/23 04:32:49;;;;;;;0.22;0.22;;;;;;;9.62;56.32;103135.34;5065048;28;20038;-76
2022/03/23 04:35:15;;;;;;;0.40;0.40;;;;;;;9.60;57.13;103138.81;5068432;28;20036;-76
2022/03/23 04:37:43;;;;;;;0.13;0.13;;;;;;;9.61;56.03;103135.28;5066496;28;20102;-77
2022/03/23 04:40:10;;;;;;;0.00;0.00;;;;;;;9.57;56.43;103139.66;5056216;28;20029;-75
2022/03/23 04:42:38;;;;;;;0.10;0.10;;;;;;;9.52;56.35;103141.28;5057083;28;20041;-77
2022/03/23 04:45:05;;;;;;;1.67;1.58;;;;;;;9.48;56.47;103143.00;5061287;28;20029;-76
2022/03/23 04:47:33;;;;;;;0.10;0.10;;;;;;;9.47;56.16;103148.25;5057804;28;20029;-77
2022/03/23 04:49:59;;;;;;;0.28;0.28;;;;;;;9.44;56.63;103148.19;5054878;28;20082;-76
2022/03/23 04:52:26;;;;;;;0.10;0.10;;;;;;;9.43;55.92;103149.03;5057565;28;20133;-76
2022/03/23 04:54:56;;;;;;;1.20;1.17;;;;;;;9.41;56.19;103148.09;5056002;28;20039;-77
2022/03/23 04:57:26;;;;;;;0.15;0.15;;;;;;;9.38;56.37;103155.13;5060243;28;20035;-77
2022/03/23 04:59:53;;;;;;;0.10;0.10;;;;;;;9.35;56.02;103160.34;5070625;28;20060;-77
2022/03/23 05:02:19;;;;;;;0.30;0.30;;;;;;;9.35;57.89;103160.34;5056272;28;20040;-75
2022/03/23 05:04:46;;;;;;;0.03;0.03;;;;;;;9.36;56.64;103167.44;5068004;22;20557;-78
2022/03/23 05:07:13;;;;;;;0.10;0.10;;;;;;;9.36;55.94;103162.13;5065695;28;20494;-78
2022/03/23 05:09:39;;;;;;;0.10;0.10;;;;;;;9.35;56.61;103162.09;5073433;28;20035;-79
2022/03/23 05:12:06;;;;;;;0.10;0.10;;;;;;;9.33;56.68;103163.81;5084442;28;20458;-77
2022/03/23 05:14:32;;;;;;;0.25;0.25;;;;;;;9.33;57.14;103170.03;5083425;28;20063;-78
2022/03/23 05:16:59;;;;;;;0.17;0.17;;;;;;;9.33;57.31;103167.38;5087726;28;20130;-78
2022/03/23 05:19:25;;;;;;;0.10;0.10;;;;;;;9.33;57.42;103172.66;5093984;28;20039;-78
2022/03/23 05:21:51;;;;;;;0.20;0.20;;;;;;;9.32;57.21;103170.88;5093368;28;20038;-78
2022/03/23 05:24:18;;;;;;;0.20;0.20;;;;;;;9.32;56.58;103169.97;5092313;28;20092;-78
2022/03/23 05:26:44;;;;;;;0.10;0.10;;;;;;;9.29;57.48;103165.50;5087194;28;20066;-78
2022/03/23 05:29:10;;;;;;;0.10;0.10;;;;;;;9.28;58.39;103171.63;5086571;28;20111;-78
2022/03/23 05:31:37;;;;;;;0.10;0.10;;;;;;;9.27;57.98;103169.88;5080817;28;20031;-78
2022/03/23 05:34:04;;;;;;;0.40;0.40;;;;;;;9.27;56.17;103167.22;5087862;28;20052;-78
2022/03/23 05:36:30;;;;;;;2.35;0.82;;;;;;;9.26;56.84;103173.38;5093921;28;20039;-78
2022/03/23 05:38:57;;;;;;;0.10;0.10;;;;;;;9.27;56.49;103179.53;5095979;28;20043;-78
2022/03/23 05:41:24;;;;;;;0.20;0.20;;;;;;;9.25;58.55;103179.53;5097265;28;20500;-79
2022/03/23 05:43:50;;;;;;;0.10;0.10;;;;;;;9.26;58.45;103180.41;5087643;28;20092;-78
2022/03/23 05:46:16;;;;;;;0.15;0.15;;;;;;;9.27;57.22;103177.81;5088418;28;20113;-78
2022/03/23 05:48:43;;;;;;;0.30;0.30;;;;;;;9.28;57.45;103178.69;5088487;28;20081;-78
2022/03/23 05:51:10;;;;;;;0.10;0.10;;;;;;;9.28;57.55;103170.75;5077413;28;20071;-78
2022/03/23 05:53:36;;;;;;;0.20;0.20;;;;;;;9.27;57.40;103169.88;5093892;28;20032;-78
2022/03/23 05:56:06;;;;;;;0.75;0.75;;;;;;;9.27;57.40;103177.81;5081100;28;20032;-78
2022/03/23 05:58:32;;;;;;;0.28;0.28;;;;;;;9.26;57.26;103173.38;5085701;28;20445;-78
2022/03/23 06:00:58;;;;;;;0.10;0.10;;;;;;;9.27;57.61;103174.25;5084675;28;20028;-78
2022/03/23 06:03:24;;;;;;;0.10;0.10;;;;;;;9.28;57.14;103184.88;5083216;28;20028;-78
2022/03/23 06:05:50;;;;;;;0.20;0.20;;;;;;;9.28;56.86;103176.06;5089598;28;20043;-78
2022/03/23 06:08:17;;;;;;;0.10;0.10;;;;;;;9.28;56.74;103184.88;5088235;28;20021;-78
2022/03/23 06:10:43;;;;;;;0.20;0.20;;;;;;;9.28;56.48;103183.97;5084505;28;20047;-78
2022/03/23 06:13:09;;;;;;;0.10;0.10;;;;;;;9.29;56.68;103197.25;5082684;28;20044;-78
2022/03/23 06:15:35;;;;;;;0.20;0.20;;;;;;;9.31;56.53;103184.03;5078481;28;20024;-78
2022/03/23 06:18:01;;;;;;;0.77;0.77;;;;;;;9.32;56.85;103185.81;5090009;28;20024;-78
2022/03/23 06:20:28;;;;;;;0.10;0.10;;;;;;;9.35;56.84;103185.91;5083768;28;20028;-79
2022/03/23 06:22:54;;;;;;;0.13;0.13;;;;;;;9.38;57.51;103193.91;5082790;28;20605;-79
2022/03/23 06:25:20;;;;;;;0.10;0.10;;;;;;;9.41;57.55;103196.63;5086402;28;20041;-79
2022/03/23 06:27:46;;;;;;;0.10;0.10;;;;;;;9.45;56.94;103193.19;5085972;28;20028;-79
2022/03/23 06:30:12;;;;;;;0.10;0.10;;;;;;;9.48;56.88;103190.63;5093397;28;20440;-79
2022/03/23 06:32:39;;;;;;;0.10;0.10;;;;;;;9.51;57.26;103187.16;5077453;28;20187;-79
2022/03/23 06:35:05;;;;;;;0.43;0.43;;;;;;;9.54;57.14;103192.50;5073323;28;20056;-79
2022/03/23 06:37:31;;;;;;;0.43;0.43;;;;;;;9.58;56.92;103194.34;5072576;28;20028;-78
2022/03/23 06:39:58;;;;;;;0.20;0.20;;;;;;;9.59;56.77;103190.84;5074951;28;20442;-79
2022/03/23 06:42:24;;;;;;;0.28;0.28;;;;;;;9.63;56.78;103192.72;5079076;28;20028;-79
2022/03/23 06:44:50;;;;;;;0.40;0.40;;;;;;;9.68;57.01;103198.09;5094097;28;20031;-78
2022/03/23 06:47:17;;;;;;;0.05;0.05;;;;;;;9.69;57.02;103191.94;5085112;28;20032;-79
2022/03/23 06:49:43;;;;;;;0.52;0.52;;;;;;;9.75;56.97;103196.50;5076674;28;20092;-79
2022/03/23 06:52:09;;;;;;;0.10;0.10;;;;;;;9.78;57.18;103199.19;5071533;28;20044;-79
2022/03/23 06:54:36;;;;;;;0.10;0.10;;;;;;;9.80;57.26;103187.78;5067720;28;20322;-79
2022/03/23 06:57:02;;;;;;;0.03;0.03;;;;;;;9.84;57.09;103199.31;5072751;28;20452;-77
2022/03/23 06:59:28;;;;;;;0.57;0.57;;;;;;;9.86;56.95;103200.25;5072001;28;20121;-79
2022/03/23 07:01:55;;;;;;;0.10;0.10;;;;;;;9.90;56.57;103196.81;5076885;28;20029;-79
2022/03/23 07:04:24;;;;;;;0.20;0.20;;;;;;;9.94;57.17;103206.59;5071775;28;20064;-79
2022/03/23 07:06:51;;;;;;;0.10;0.10;;;;;;;9.96;56.98;103202.22;5072849;28;20032;-80
2022/03/23 07:09:33;;;;;;;0.17;0.17;;;;;;;10.01;56.93;103200.56;5078845;28;20043;-79
2022/03/23 07:12:00;;;;;;;0.10;0.10;;;;;;;10.07;56.76;103209.47;5072191;28;20032;-79
2022/03/23 07:14:28;;;;;;;0.00;0.00;;;;;;;10.10;56.63;103206.91;5057525;28;20438;-78
2022/03/23 07:16:55;;;;;;;2.20;0.75;;;;;;;10.13;56.40;103209.59;5072619;28;20025;-79
2022/03/23 07:19:22;;;;;;;0.85;0.85;;;;;;;10.16;56.19;103220.28;5071985;28;20037;-80
2022/03/23 07:21:49;;;;;;;0.10;0.10;;;;;;;10.18;56.43;103219.44;5072162;28;20028;-79
2022/03/23 07:24:15;;;;;;;0.93;0.93;;;;;;;10.26;56.29;103216.06;5073924;28;20459;-79
2022/03/23 07:26:41;;;;;;;0.25;0.25;;;;;;;10.29;56.01;103209.06;5073028;28;20440;-79
2022/03/23 07:29:08;;;;;;;1.08;1.08;;;;;;;10.34;56.27;103215.34;5069762;28;20038;-79
2022/03/23 07:31:35;;;;;;;0.10;0.10;;;;;;;10.39;56.04;103211.91;5070020;28;20054;-79
2022/03/23 07:34:02;;;;;;;0.10;0.10;;;;;;;10.44;55.89;103226.13;5071039;28;20103;-78
2022/03/23 07:36:29;;;;;;;0.63;0.63;;;;;;;10.50;55.84;103228.91;5053600;28;20090;-78
2022/03/23 07:38:56;;;;;;;0.20;0.20;;;;;;;10.50;56.11;103223.59;5058117;28;20055;-79
2022/03/23 07:41:22;;;;;;;0.45;0.28;;;;;;;10.54;56.06;103224.56;5066977;28;20351;-79
2022/03/23 07:43:49;;;;;;;9.73;1.75;;;;;;;10.58;56.04;103229.03;5064255;28;20036;-79
2022/03/23 07:46:17;;;;;;;0.10;0.10;;;;;;;10.72;55.96;103232.84;5072427;28;20024;-79
2022/03/23 07:48:43;;;;;;;0.10;0.10;;;;;;;10.79;55.79;103233.84;5075818;28;20549;-78
2022/03/23 07:51:10;;;;;;;0.00;0.00;;;;;;;10.85;55.46;103231.28;5075641;28;20024;-78
2022/03/23 07:53:36;;;;;;;0.10;0.10;;;;;;;10.92;55.23;103245.56;5073161;28;20039;-77
2022/03/23 07:56:02;;;;;;;1.17;1.17;;;;;;;10.97;55.03;103243.88;5072725;28;20029;-78
2022/03/23 07:58:29;;;;;;;0.20;0.20;;;;;;;11.03;55.14;103248.38;5074659;28;20116;-78
2022/03/23 08:00:56;;;;;;;0.30;0.30;;;;;;;11.07;55.82;103239.63;5071954;28;20067;-78
2022/03/23 08:03:22;;;;;;;0.35;0.35;;;;;;;11.16;55.38;103245.06;5068210;28;20028;-78
2022/03/23 08:05:48;;;;;;;0.45;0.45;;;;;;;11.25;55.32;103241.66;5054098;28;20086;-77
2022/03/23 08:08:14;;;;;;;0.00;0.00;;;;;;;11.32;54.91;103247.09;5062302;28;20048;-78
2022/03/23 08:10:42;;;;;;;0.52;0.52;;;;;;;11.42;54.82;103244.59;5073101;28;20025;-78
2022/03/23 08:13:09;;;;;;;0.25;0.25;;;;;;;11.49;54.49;103249.13;5075674;28;20032;-78
2022/03/23 08:15:36;;;;;;;0.10;0.10;;;;;;;11.58;54.59;103238.63;5075025;28;20111;-78
2022/03/23 08:18:03;;;;;;;0.45;0.45;;;;;;;11.68;54.60;103250.28;5072781;28;20032;-79
2022/03/23 08:20:32;;;;;;;0.10;0.10;;;;;;;11.78;54.17;103246.00;5073217;28;20106;-78
2022/03/23 08:22:59;;;;;;;15.23;1.55;;;;;;;11.87;54.23;103235.47;5069484;28;20025;-77
2022/03/23 08:25:26;;;;;;;0.10;0.10;;;;;;;11.97;54.29;103242.75;5063242;28;20119;-78
2022/03/23 08:27:53;;;;;;;0.10;0.10;;;;;;;12.09;54.19;103241.13;5061763;28;20082;-78
2022/03/23 08:30:19;;;;;;;3.75;1.38;;;;;;;12.22;53.21;103245.69;5064331;28;20028;-78
2022/03/23 08:32:45;;;;;;;0.20;0.20;;;;;;;12.35;53.07;103244.06;5071920;28;20032;-78
2022/03/23 08:35:11;;;;;;;0.10;0.10;;;;;;;12.46;52.54;103242.41;5072028;28;20421;-77
2022/03/23 08:37:38;;;;;;;0.13;0.13;;;;;;;12.61;52.58;103232.78;5073189;28;20028;-77
2022/03/23 08:40:05;;;;;;;1.13;1.05;;;;;;;12.78;52.53;103243.59;5073492;28;20078;-78
2022/03/23 08:42:31;;;;;;;0.10;0.10;;;;;;;12.85;51.84;103240.13;5060403;28;20108;-77
2022/03/23 08:44:57;;;;;;;1.50;1.27;;;;;;;13.03;52.07;103238.50;5059427;28;20095;-78
2022/03/23 08:47:24;;;;;;;0.00;0.00;;;;;;;13.16;50.83;103242.13;5069287;28;20024;-78
2022/03/23 08:49:50;;;;;;;1.65;1.55;;;;;;;13.30;51.07;103240.47;5063090;28;20037;-78
2022/03/23 08:52:16;;;;;;;2.95;1.95;;;;;;;13.41;50.67;103246.81;5065905;28;20028;-77
2022/03/23 08:54:42;;;;;;;6.18;1.52;;;;;;;13.52;50.39;103238.91;5062885;28;20036;-78
2022/03/23 08:57:08;;;;;;;0.30;0.30;;;;;;;13.66;50.22;103235.44;5049287;28;20086;-78
2022/03/23 08:59:35;;;;;;;0.00;0.00;;;;;;;13.78;49.54;103238.13;5058023;28;20119;-78
2022/03/23 09:02:01;;;;;;;0.10;0.10;;;;;;;13.89;49.27;103233.75;5071667;28;20098;-79
2022/03/23 09:04:27;;;;;;;0.10;0.10;;;;;;;13.99;49.57;103229.34;5059003;28;20104;-79
2022/03/23 09:06:53;;;;;;;0.10;0.10;;;;;;;14.14;49.13;103227.63;5065328;28;20081;-77
2022/03/23 09:09:19;;;;;;;5.15;0.95;;;;;;;14.24;49.46;103234.75;5065159;28;20029;-77
2022/03/23 09:11:45;;;;;;;0.52;0.52;;;;;;;14.36;48.82;103240.13;5072428;28;20024;-78
2022/03/23 09:14:14;;;;;;;4.35;3.95;;;;;;;14.50;48.45;103240.16;5071640;28;20039;-77
2022/03/23 09:16:41;;;;;;;1.25;1.17;;;;;;;14.56;48.66;103237.50;5074246;28;20070;-78
2022/03/23 09:19:07;;;;;;;0.10;0.10;;;;;;;14.64;46.51;103237.53;5069959;28;20486;-79
2022/03/23 09:21:34;;;;;;;0.68;0.68;;;;;;;14.77;47.48;103246.47;5074987;28;20056;-79
2022/03/23 09:24:01;;;;;;;1.80;1.35;;;;;;;14.85;47.70;103239.34;5076160;28;20036;-79
2022/03/23 09:26:27;;;;;;;1.88;1.00;;;;;;;14.99;47.59;103239.34;5066090;28;20037;-79
2022/03/23 09:28:53;;;;;;;0.70;0.70;;;;;;;15.12;47.37;103242.91;5075754;28;20024;-79
2022/03/23 09:31:19;;;;;;;0.40;0.40;;;;;;;15.22;47.23;103233.09;5074436;28;20021;-78
2022/03/23 09:33:48;;;;;;;0.50;0.50;;;;;;;15.30;46.57;103235.75;5075275;28;20036;-79
2022/03/23 09:39:04;;;;;;;1.13;1.08;;;;;;;15.59;45.46;103232.13;5066801;28;20040;-78
2022/03/23 09:41:32;;;;;;;0.68;0.22;;;;;;;15.63;45.54;103236.59;5072572;28;20033;-78
2022/03/23 09:43:59;;;;;;;2.67;2.47;;;;;;;15.75;45.32;103232.97;5072700;28;20032;-79
2022/03/23 09:46:25;;;;;;;0.32;0.32;;;;;;;15.88;45.48;103234.75;5073152;28;20028;-78
2022/03/23 09:48:51;;;;;;;1.45;0.85;;;;;;;15.98;44.00;103232.94;5077123;28;20025;-80
2022/03/23 09:51:19;;;;;;;1.13;1.13;;;;;;;16.12;44.60;103239.06;5074745;28;20028;-78
2022/03/23 09:53:46;;;;;;;0.20;0.20;;;;;;;16.23;43.81;103235.47;5072861;28;20408;-77
2022/03/23 09:56:13;;;;;;;1.10;1.10;;;;;;;16.38;44.68;103234.50;5073545;28;20509;-78
2022/03/23 09:58:42;;;;;;;0.20;0.20;;;;;;;16.49;43.94;103235.31;5074077;28;20133;-77
2022/03/23 10:04:41;;;;;;;0.70;0.70;;;;;;;16.84;41.92;103239.53;5069854;28;20371;-78
2022/03/23 10:13:08;;;;;;;0.50;0.50;;;;;;;17.24;42.72;103239.19;5064645;27;20141;-77
2022/03/23 10:16:14;;;;;;;0.32;0.32;;;;;;;17.36;41.32;103242.66;5066313;27;20051;-76
2022/03/23 10:18:57;;;;;;;0.20;0.20;;;;;;;17.49;42.22;103235.38;5065995;28;20576;-76
2022/03/23 10:21:26;;;;;;;0.40;0.40;;;;;;;17.51;41.41;103246.94;5066202;28;20056;-78
2022/03/23 10:26:29;;;;;;;4.00;2.30;;;;;;;17.59;40.59;103240.59;5116112;27;1203043;-78
2022/03/23 10:28:56;;;;;;;1.45;1.13;;;;;;;17.87;41.41;103239.38;5120490;27;20042;-78
2022/03/23 10:31:25;;;;;;;1.10;1.10;;;;;;;18.03;39.45;103229.38;5102486;28;20039;-79
2022/03/23 10:34:08;;;;;;;1.05;1.02;;;;;;;18.18;39.80;103233.66;5110989;28;20032;-79
2022/03/23 10:36:51;;;;;;;1.35;1.27;;;;;;;18.29;38.01;103229.03;5110090;28;20024;-78
2022/03/23 10:39:19;;;;;;;2.38;2.15;;;;;;;18.37;38.86;103229.81;5111164;28;20073;-80
2022/03/23 10:41:57;;;;;;;1.00;1.00;;;;;;;18.53;38.39;103221.50;5109093;28;20020;-79
2022/03/23 10:44:24;;;;;;;2.58;2.28;;;;;;;18.61;38.31;103216.06;5110085;28;20039;-79
2022/03/23 10:46:50;;;;;;;0.17;0.17;;;;;;;18.66;37.88;103212.34;5111061;28;20028;-80
2022/03/23 10:49:16;;;;;;;0.40;0.40;;;;;;;18.73;36.81;103224.78;5108708;28;20101;-79
2022/03/23 10:51:43;;;;;;;2.22;2.10;;;;;;;18.86;38.25;103211.16;5109447;28;20035;-78
2022/03/23 10:54:19;;;;;;;0.88;0.88;;;;;;;18.98;38.58;103210.06;5103760;28;20096;-81
2022/03/23 10:56:45;;;;;;;0.82;0.82;;;;;;;19.07;37.04;103217.97;5111931;28;20036;-80
2022/03/23 10:59:27;;;;;;;1.55;1.38;;;;;;;19.27;37.85;103208.66;5110234;28;20364;-80
2022/03/23 11:04:49;;;;;;;0.90;0.82;;;;;;;19.44;36.90;103206.53;5104434;22;20434;-81
2022/03/23 11:07:35;;;;;;;2.58;2.38;;;;;;;19.47;36.88;103213.66;5050720;28;20537;-78
2022/03/23 11:15:53;;;;;;;1.65;1.08;;;;;;;19.74;35.91;103212.22;5047341;28;20041;-77
2022/03/23 11:18:20;;;;;;;0.50;0.50;;;;;;;19.85;35.00;103204.81;5051153;28;20089;-78
2022/03/23 11:28:45;;;;;;;2.88;2.65;;;;;;;20.24;35.40;103213.81;5105017;27;20395;-77
2022/03/23 11:31:15;;;;;;;0.85;0.85;;;;;;;20.30;32.81;103201.13;5072745;28;20035;-77
2022/03/23 11:33:45;;;;;;;0.50;0.50;;;;;;;20.35;30.64;103204.59;5073009;28;20025;-81
2022/03/23 11:36:12;;;;;;;0.40;0.40;;;;;;;20.44;33.57;103208.00;5071671;28;20052;-78
2022/03/23 11:38:39;;;;;;;0.40;0.40;;;;;;;20.51;33.68;103204.22;5071205;28;20028;-77
2022/03/23 11:41:07;;;;;;;1.65;1.58;;;;;;;20.59;32.96;103202.22;5072041;28;20024;-78
2022/03/23 11:43:34;;;;;;;0.60;0.60;;;;;;;20.74;33.93;103208.19;5067775;28;20025;-82
2022/03/23 11:46:02;;;;;;;1.23;1.20;;;;;;;20.82;33.56;103206.16;5073706;28;20033;-82
2022/03/23 11:48:42;;;;;;;1.95;1.80;;;;;;;20.92;33.44;103199.66;5070892;28;20025;-82
2022/03/23 11:54:11;;;;;;;0.60;0.60;;;;;;;21.03;34.10;103201.16;5079808;28;20406;-84
2022/03/23 11:56:55;;;;;;;1.00;0.88;;;;;;;21.08;34.11;103199.22;5074857;28;20033;-83
2022/03/23 12:01:58;;;;;;;0.57;0.57;;;;;;;21.17;34.09;103188.16;5109583;27;1198574;-81
2022/03/23 12:04:26;;;;;;;1.65;1.05;;;;;;;21.25;33.33;103180.78;5131575;27;20047;-82
2022/03/23 12:07:04;;;;;;;1.48;1.38;;;;;;;21.33;33.71;103178.75;5120767;28;20028;-82
2022/03/23 12:12:30;;;;;;;0.43;0.43;;;;;;;21.44;33.79;103174.84;5120215;27;20432;-82
2022/03/23 12:15:25;;;;;;;0.63;0.63;;;;;;;21.46;33.12;103173.00;5119429;28;20370;-82
2022/03/23 12:17:59;;;;;;;0.73;0.73;;;;;;;21.49;32.12;103168.38;5110949;28;20122;-82